Galt, Missouri
Current Conditions -  °F | °C
As of 4:53 PM on Saturday 25 Oct 2014 (Local Time) from KLWD Reporting Station
Clear Clear  
Wind Chill: 73°   Ceiling: Unl
Heat Index: 73°   Visibility: 10mi
Dew Point: 47°   Wind: 7mph
Humidity: 39%   Direction: 50°NE
Pressure: 30.05"   Gusts: NA
Location:  40.13°N, 93.39°W
Report Text: KLWD 252153Z AUTO 05006KT 10SM CLR 23/08 A3005 RMK AO2 SLP174 T02280083
Loading
Personal Weather Stations






























Interactive Weather Map
Tropical Storm Tracking
New forecast layout! Learn more

10-Day Weather Forecast

Advertisements
Track Severe Weather on mobile